Time;durP1;ratioP1;P1;durP2;ratioP2;P2;SDS_P1;SDS_P2;PMS_P1;PMS_P2;Temp;Humidity;BMP_temperature;BMP_pressure;BME280_temperature;BME280_humidity;BME280_pressure;Samples;Min_cycle;Max_cycle;Signal;HPM_P1;HPM_P2
2023/05/24 00:00:11;;;;;;;1999.90;999.90;;;23.10;80.00;;;;;;5083663;28;20044;-71
2023/05/24 00:02:42;;;;;;;1999.90;999.90;;;22.90;80.10;;;;;;5089831;28;20060;-71
2023/05/24 00:05:10;;;;;;;1999.90;999.90;;;22.80;80.80;;;;;;5082907;28;20055;-70
2023/05/24 00:07:38;;;;;;;1999.90;999.90;;;23.00;79.40;;;;;;5094833;28;20074;-70
2023/05/24 00:10:06;;;;;;;1999.90;999.90;;;22.90;80.60;;;;;;5086624;28;20519;-72
2023/05/24 00:12:34;;;;;;;1999.90;999.90;;;23.30;79.00;;;;;;5082072;28;20126;-71
2023/05/24 00:15:02;;;;;;;1999.90;999.90;;;23.40;79.00;;;;;;5065023;28;20071;-69
2023/05/24 00:17:29;;;;;;;1999.90;999.90;;;23.50;80.00;;;;;;5092594;28;20016;-71
2023/05/24 00:19:57;;;;;;;1999.90;999.90;;;23.80;78.90;;;;;;5094461;28;20070;-70
2023/05/24 00:22:24;;;;;;;1999.90;999.90;;;24.20;77.80;;;;;;5085884;28;20024;-70
2023/05/24 00:24:52;;;;;;;1999.90;999.90;;;24.20;79.10;;;;;;5076592;28;20028;-70
2023/05/24 00:27:20;;;;;;;1999.90;999.90;;;24.50;78.10;;;;;;5086838;28;20023;-72
2023/05/24 00:29:47;;;;;;;1999.90;999.90;;;24.60;78.50;;;;;;5083771;28;20016;-71
2023/05/24 00:32:14;;;;;;;1999.90;999.90;;;24.80;77.40;;;;;;5086227;28;20020;-71
2023/05/24 00:34:41;;;;;;;1999.90;999.90;;;25.10;76.30;;;;;;5084008;28;20066;-72
2023/05/24 00:37:09;;;;;;;1999.90;999.90;;;25.20;76.10;;;;;;5086996;28;20032;-70
2023/05/24 00:39:37;;;;;;;1999.90;999.90;;;25.50;76.30;;;;;;5088430;28;20443;-71
2023/05/24 00:42:05;;;;;;;1999.90;999.90;;;25.10;78.00;;;;;;5087317;28;20032;-70
2023/05/24 00:44:32;;;;;;;1999.90;999.90;;;25.70;75.80;;;;;;5075879;28;20329;-72
2023/05/24 00:47:00;;;;;;;1999.90;999.90;;;25.60;76.30;;;;;;5082840;28;20104;-70
2023/05/24 00:49:28;;;;;;;1999.90;999.90;;;25.90;74.80;;;;;;5081048;28;20446;-70
2023/05/24 00:51:55;;;;;;;1999.90;999.90;;;25.80;75.80;;;;;;5082382;28;20086;-70
2023/05/24 00:54:25;;;;;;;1999.90;999.90;;;25.80;75.00;;;;;;5082810;28;20063;-70
2023/05/24 00:56:54;;;;;;;1999.90;999.90;;;25.30;75.90;;;;;;5082589;28;20035;-69
2023/05/24 00:59:22;;;;;;;1999.90;999.90;;;25.40;75.60;;;;;;5078043;28;20029;-72
2023/05/24 01:01:49;;;;;;;1999.90;999.90;;;25.20;75.90;;;;;;5076770;28;20529;-71
2023/05/24 01:04:19;;;;;;;1999.90;999.90;;;25.30;75.90;;;;;;5071203;28;20064;-72
2023/05/24 01:07:13;;;;;;;1999.90;999.90;;;25.70;75.40;;;;;;5088810;28;20097;-70
2023/05/24 01:09:49;;;;;;;1999.90;999.90;;;25.80;75.40;;;;;;5076067;28;20021;-70
2023/05/24 01:12:22;;;;;;;1999.90;999.90;;;25.90;75.90;;;;;;5089464;28;20127;-71
2023/05/24 01:15:17;;;;;;;1999.90;999.90;;;26.30;74.90;;;;;;5080005;28;20032;-70
2023/05/24 01:18:16;;;;;;;1999.90;999.90;;;26.40;74.20;;;;;;5085505;28;20499;-70
2023/05/24 01:20:45;;;;;;;1999.90;999.90;;;26.60;75.00;;;;;;5088276;28;20032;-72
2023/05/24 01:23:37;;;;;;;1999.90;999.90;;;26.60;73.30;;;;;;5082240;28;20094;-72
2023/05/24 01:26:20;;;;;;;1999.90;999.90;;;26.50;74.40;;;;;;5080303;28;20436;-69
2023/05/24 01:28:50;;;;;;;1999.90;999.90;;;26.70;75.50;;;;;;5078541;28;20458;-72
2023/05/24 01:31:20;;;;;;;1999.90;999.90;;;26.80;73.40;;;;;;5079132;28;20032;-72
2023/05/24 01:33:48;;;;;;;1999.90;999.90;;;26.50;73.80;;;;;;5078042;28;20040;-70
2023/05/24 01:36:15;;;;;;;1999.90;999.90;;;26.60;73.30;;;;;;5077454;28;20379;-72
2023/05/24 01:38:43;;;;;;;1999.90;999.90;;;26.60;74.90;;;;;;5075873;28;20040;-68
2023/05/24 01:41:34;;;;;;;1999.90;999.90;;;26.90;74.00;;;;;;5077479;28;20012;-71
2023/05/24 01:44:34;;;;;;;1999.90;999.90;;;26.80;74.10;;;;;;5085333;28;20032;-72
2023/05/24 01:47:32;;;;;;;1999.90;999.90;;;26.80;73.00;;;;;;5086056;28;20040;-71
2023/05/24 01:50:22;;;;;;;1999.90;999.90;;;27.10;73.40;;;;;;5074512;28;20020;-72
2023/05/24 01:52:51;;;;;;;1999.90;999.90;;;27.10;73.70;;;;;;5075692;28;20378;-69
2023/05/24 01:55:20;;;;;;;1999.90;999.90;;;27.20;72.60;;;;;;5075237;28;20032;-70
2023/05/24 01:57:49;;;;;;;1999.90;999.90;;;27.20;73.30;;;;;;5080776;28;20139;-72
2023/05/24 02:00:19;;;;;;;1999.90;999.90;;;27.30;73.40;;;;;;5075817;28;20032;-71
2023/05/24 02:02:47;;;;;;;1999.90;999.90;;;27.20;73.80;;;;;;5082409;28;20047;-71
2023/05/24 02:05:15;;;;;;;1999.90;999.90;;;27.60;73.40;;;;;;5071816;28;20078;-72
2023/05/24 02:07:43;;;;;;;1999.90;999.90;;;27.70;72.20;;;;;;5078634;28;20032;-72
2023/05/24 02:10:16;;;;;;;1999.90;999.90;;;27.70;73.20;;;;;;5077510;28;20031;-72
2023/05/24 02:12:43;;;;;;;1999.90;999.90;;;27.80;73.20;;;;;;5074379;28;20469;-71
2023/05/24 02:15:13;;;;;;;1999.90;999.90;;;27.80;72.70;;;;;;5076814;28;20020;-71
2023/05/24 02:17:42;;;;;;;1999.90;999.90;;;27.90;72.40;;;;;;5079361;28;20100;-72
2023/05/24 02:20:12;;;;;;;1999.90;999.90;;;27.80;71.70;;;;;;5087537;28;20016;-73
2023/05/24 02:22:40;;;;;;;1999.90;999.90;;;27.50;71.60;;;;;;5086734;28;20026;-72
2023/05/24 02:25:08;;;;;;;1999.90;999.90;;;27.10;72.10;;;;;;5086955;28;20028;-72
2023/05/24 02:27:35;;;;;;;1999.90;999.90;;;27.00;72.50;;;;;;5086309;28;20024;-70
2023/05/24 02:30:02;;;;;;;1999.90;999.90;;;27.10;72.80;;;;;;5084678;28;20026;-70
2023/05/24 02:32:30;;;;;;;1999.90;999.90;;;27.10;73.20;;;;;;5069114;28;20119;-70
2023/05/24 02:34:58;;;;;;;1999.90;999.90;;;27.00;73.50;;;;;;5077156;28;20030;-71
2023/05/24 02:37:25;;;;;;;1999.90;999.90;;;26.90;73.00;;;;;;5082044;28;20020;-71
2023/05/24 02:39:52;;;;;;;1999.90;999.90;;;26.70;72.50;;;;;;5082424;28;20103;-70
2023/05/24 02:42:20;;;;;;;1999.90;999.90;;;26.60;73.40;;;;;;5074435;28;20480;-71
2023/05/24 02:44:48;;;;;;;1999.90;999.90;;;26.50;72.80;;;;;;5076857;28;20051;-71
2023/05/24 02:47:16;;;;;;;1999.90;999.90;;;26.30;73.70;;;;;;5082002;28;20020;-72
2023/05/24 02:49:43;;;;;;;1999.90;999.90;;;25.90;72.90;;;;;;5081115;28;20031;-71
2023/05/24 02:52:12;;;;;;;1999.90;999.90;;;25.70;73.60;;;;;;5081730;28;20023;-70
2023/05/24 02:54:39;;;;;;;1999.90;999.90;;;25.70;73.50;;;;;;5081943;28;20067;-72
2023/05/24 02:57:07;;;;;;;1999.90;999.90;;;25.50;72.70;;;;;;5067700;28;20432;-70
2023/05/24 02:59:35;;;;;;;1999.90;999.90;;;25.30;73.60;;;;;;5075602;28;20020;-71
2023/05/24 03:02:02;;;;;;;1999.90;999.90;;;25.20;74.00;;;;;;5077553;28;20044;-71
2023/05/24 03:04:29;;;;;;;1999.90;999.90;;;25.00;73.90;;;;;;5069668;28;20028;-71
2023/05/24 03:06:57;;;;;;;1999.90;999.90;;;24.90;72.90;;;;;;5090461;28;20028;-72
2023/05/24 03:09:24;;;;;;;1999.90;999.90;;;24.60;73.30;;;;;;5087882;28;20427;-72
2023/05/24 03:11:53;;;;;;;1999.90;999.90;;;24.40;73.00;;;;;;5075912;28;20024;-71
2023/05/24 03:14:23;;;;;;;1999.90;999.90;;;24.20;74.10;;;;;;5081553;28;20052;-74
2023/05/24 03:16:50;;;;;;;1999.90;999.90;;;24.30;74.30;;;;;;5076917;28;20032;-72
2023/05/24 03:19:18;;;;;;;1999.90;999.90;;;24.20;74.30;;;;;;5074997;28;20499;-70
2023/05/24 03:21:45;;;;;;;1999.90;999.90;;;24.00;73.30;;;;;;5060829;28;20588;-71
2023/05/24 03:24:13;;;;;;;1999.90;999.90;;;23.60;74.40;;;;;;5070413;28;20028;-70
2023/05/24 03:26:41;;;;;;;1999.90;999.90;;;23.20;74.50;;;;;;5075497;28;20039;-68
2023/05/24 03:29:09;;;;;;;1999.90;999.90;;;22.80;74.40;;;;;;5073047;28;20054;-69
2023/05/24 03:31:36;;;;;;;1999.90;999.90;;;22.40;74.90;;;;;;5087241;28;20084;-70
2023/05/24 03:34:04;;;;;;;1999.90;999.90;;;22.20;74.60;;;;;;5080288;28;20379;-71
2023/05/24 03:36:31;;;;;;;1999.90;999.90;;;21.90;74.30;;;;;;5077299;28;21997;-69
2023/05/24 03:38:59;;;;;;;1999.90;999.90;;;21.70;75.60;;;;;;5081896;28;20035;-71
2023/05/24 03:41:27;;;;;;;1999.90;999.90;;;21.40;75.70;;;;;;5076360;28;20475;-70
2023/05/24 03:43:54;;;;;;;1999.90;999.90;;;21.10;76.20;;;;;;5079286;28;20110;-70
2023/05/24 03:46:21;;;;;;;1999.90;999.90;;;21.00;76.50;;;;;;5086242;28;20120;-71
2023/05/24 03:48:49;;;;;;;1999.90;999.90;;;20.80;76.80;;;;;;5083206;28;20115;-71
2023/05/24 03:51:16;;;;;;;1999.90;999.90;;;20.60;78.60;;;;;;5073343;28;20028;-71
2023/05/24 03:53:44;;;;;;;1999.90;999.90;;;20.40;78.30;;;;;;5080141;28;20044;-71
2023/05/24 03:56:11;;;;;;;1999.90;999.90;;;20.30;79.30;;;;;;5083715;28;20021;-69
2023/05/24 03:58:38;;;;;;;1999.90;999.90;;;20.20;78.10;;;;;;5078383;28;20051;-72
2023/05/24 04:01:06;;;;;;;1999.90;999.90;;;20.00;79.00;;;;;;5062822;28;20036;-72
2023/05/24 04:03:35;;;;;;;1999.90;999.90;;;19.90;78.70;;;;;;5074076;28;20047;-71
2023/05/24 04:06:02;;;;;;;1999.90;999.90;;;19.90;79.50;;;;;;5075517;28;20127;-70
2023/05/24 04:08:33;;;;;;;1999.90;999.90;;;19.90;78.50;;;;;;5079212;28;20020;-71
2023/05/24 04:11:00;;;;;;;1999.90;999.90;;;19.90;79.50;;;;;;5060007;28;20048;-70
2023/05/24 04:13:28;;;;;;;1999.90;999.90;;;19.70;79.80;;;;;;5074852;28;20032;-70
2023/05/24 04:15:55;;;;;;;1999.90;999.90;;;19.60;79.90;;;;;;5089621;28;22202;-70
2023/05/24 04:18:23;;;;;;;1999.90;999.90;;;19.50;79.70;;;;;;5088500;28;20077;-71
2023/05/24 04:20:51;;;;;;;1999.90;999.90;;;19.40;80.00;;;;;;5088667;28;20020;-71
2023/05/24 04:23:18;;;;;;;1999.90;999.90;;;19.30;78.00;;;;;;5111597;28;20500;-71
2023/05/24 04:25:45;;;;;;;1999.90;999.90;;;19.30;78.50;;;;;;5100352;28;20209;-71
2023/05/24 04:28:14;;;;;;;1999.90;999.90;;;19.20;79.30;;;;;;5092165;28;20058;-72
2023/05/24 04:30:44;;;;;;;1999.90;999.90;;;19.30;80.30;;;;;;5079904;28;20020;-71
2023/05/24 04:33:12;;;;;;;1999.90;999.90;;;19.30;80.10;;;;;;5072600;28;20040;-70
2023/05/24 04:35:40;;;;;;;1999.90;999.90;;;19.20;80.80;;;;;;5093830;28;20036;-69
2023/05/24 04:38:07;;;;;;;1999.90;999.90;;;19.20;80.50;;;;;;5102896;28;20440;-73
2023/05/24 04:40:35;;;;;;;1999.90;999.90;;;19.10;79.80;;;;;;5101358;28;20031;-72
2023/05/24 04:43:02;;;;;;;1999.90;999.90;;;19.10;80.40;;;;;;5109828;28;20028;-70
2023/05/24 04:45:31;;;;;;;1999.90;999.90;;;19.10;80.70;;;;;;5087120;28;20024;-70
2023/05/24 04:47:59;;;;;;;1999.90;999.90;;;19.20;80.30;;;;;;5077335;28;20060;-69
2023/05/24 04:50:27;;;;;;;1999.90;999.90;;;19.10;80.60;;;;;;5080435;28;20028;-72
2023/05/24 04:52:55;;;;;;;1999.90;999.90;;;19.00;80.20;;;;;;5092771;28;20036;-71
2023/05/24 04:55:22;;;;;;;1999.90;999.90;;;19.00;79.60;;;;;;5086960;28;20067;-70
2023/05/24 04:57:49;;;;;;;1999.90;999.90;;;19.00;78.40;;;;;;5080905;28;20054;-70
2023/05/24 05:00:17;;;;;;;1999.90;999.90;;;19.10;78.90;;;;;;5086560;28;20027;-70
2023/05/24 05:02:44;;;;;;;1999.90;999.90;;;19.10;78.20;;;;;;5085617;28;20036;-70
2023/05/24 05:05:13;;;;;;;1999.90;999.90;;;19.00;78.60;;;;;;5089745;28;20080;-71
2023/05/24 05:07:40;;;;;;;1999.90;999.90;;;18.90;78.60;;;;;;5092781;28;20364;-71
2023/05/24 05:10:08;;;;;;;1999.90;999.90;;;18.90;78.80;;;;;;5079375;28;20055;-69
2023/05/24 05:12:35;;;;;;;1999.90;999.90;;;19.00;79.20;;;;;;5090525;28;20023;-69
2023/05/24 05:15:12;;;;;;;1999.90;999.90;;;18.90;80.10;;;;;;5088332;28;20024;-71
2023/05/24 05:17:40;;;;;;;1999.90;999.90;;;18.90;79.40;;;;;;5090000;28;20028;-71
2023/05/24 05:20:08;;;;;;;1999.90;999.90;;;18.90;80.50;;;;;;5080324;28;20028;-69
2023/05/24 05:22:35;;;;;;;1999.90;999.90;;;18.80;80.70;;;;;;5080993;28;20024;-70
2023/05/24 05:25:03;;;;;;;1999.90;999.90;;;18.70;80.40;;;;;;5081019;28;20051;-70
2023/05/24 05:27:30;;;;;;;1999.90;999.90;;;18.80;79.80;;;;;;5087264;28;20031;-69
2023/05/24 05:29:58;;;;;;;1999.90;999.90;;;18.70;79.90;;;;;;5087005;28;20093;-70
2023/05/24 05:32:25;;;;;;;1999.90;999.90;;;18.70;80.60;;;;;;5085298;28;20032;-69
2023/05/24 05:34:52;;;;;;;1999.90;999.90;;;18.80;80.40;;;;;;5087977;28;20029;-69
2023/05/24 05:37:23;;;;;;;1999.90;999.90;;;18.80;81.10;;;;;;5078386;28;20017;-70
2023/05/24 05:39:50;;;;;;;1999.90;999.90;;;18.80;80.60;;;;;;5091948;28;20028;-70
2023/05/24 05:42:18;;;;;;;1999.90;999.90;;;18.80;80.40;;;;;;5084678;28;20029;-71
2023/05/24 05:44:45;;;;;;;1999.90;999.90;;;18.90;79.40;;;;;;5075874;28;20020;-70
2023/05/24 05:47:13;;;;;;;1999.90;999.90;;;18.80;80.70;;;;;;5085047;28;20111;-70
2023/05/24 05:49:40;;;;;;;1999.90;999.90;;;18.80;79.20;;;;;;5087855;28;20024;-71
2023/05/24 05:52:07;;;;;;;1999.90;999.90;;;18.80;79.80;;;;;;5095966;28;20056;-70
2023/05/24 05:54:35;;;;;;;1999.90;999.90;;;18.80;79.80;;;;;;5075772;28;20052;-72
2023/05/24 05:57:02;;;;;;;1999.90;999.90;;;18.90;80.20;;;;;;5085570;28;20401;-70
2023/05/24 05:59:31;;;;;;;1999.90;999.90;;;18.90;79.40;;;;;;5082128;28;20093;-69
2023/05/24 06:01:59;;;;;;;1999.90;999.90;;;18.90;78.90;;;;;;5065123;28;20042;-71
2023/05/24 06:04:26;;;;;;;1999.90;999.90;;;18.90;78.50;;;;;;5086688;28;20032;-71
2023/05/24 06:06:53;;;;;;;1999.90;999.90;;;18.90;80.20;;;;;;5081459;28;20031;-69
2023/05/24 06:09:21;;;;;;;1999.90;999.90;;;19.00;81.00;;;;;;5078290;28;20047;-69
2023/05/24 06:11:48;;;;;;;1999.90;999.90;;;19.00;78.20;;;;;;5056432;28;20028;-69
2023/05/24 06:14:21;;;;;;;1999.90;999.90;;;19.00;78.10;;;;;;5069656;28;20650;-70
2023/05/24 06:16:48;;;;;;;1999.90;999.90;;;19.10;80.10;;;;;;5080195;28;22192;-69
2023/05/24 06:19:17;;;;;;;1999.90;999.90;;;19.10;80.10;;;;;;5087828;28;20028;-70
2023/05/24 06:21:50;;;;;;;1999.90;999.90;;;19.10;80.90;;;;;;5078557;28;20063;-70
2023/05/24 06:24:21;;;;;;;1999.90;999.90;;;19.10;83.40;;;;;;5087248;28;20123;-70
2023/05/24 06:26:50;;;;;;;1999.90;999.90;;;19.10;82.40;;;;;;5055913;28;20040;-71
2023/05/24 06:29:21;;;;;;;1999.90;999.90;;;19.00;81.60;;;;;;5086245;28;20036;-70
2023/05/24 06:31:49;;;;;;;1999.90;999.90;;;18.90;81.80;;;;;;5089438;28;20039;-69
2023/05/24 06:34:19;;;;;;;1999.90;999.90;;;18.70;81.50;;;;;;5077916;28;20383;-70
2023/05/24 06:36:49;;;;;;;1999.90;999.90;;;18.50;81.30;;;;;;5059932;28;20115;-70
2023/05/24 06:39:17;;;;;;;1999.90;999.90;;;18.30;81.60;;;;;;5078567;28;20043;-70
2023/05/24 06:41:50;;;;;;;1999.90;999.90;;;18.00;81.80;;;;;;5085157;28;20028;-72
2023/05/24 06:44:17;;;;;;;1999.90;999.90;;;17.80;82.40;;;;;;5089761;28;20482;-70
2023/05/24 06:46:45;;;;;;;1999.90;999.90;;;17.50;83.10;;;;;;5074650;28;20747;-71
2023/05/24 06:49:12;;;;;;;1999.90;999.90;;;17.30;84.60;;;;;;5086660;28;20032;-71
2023/05/24 06:51:42;;;;;;;1999.90;999.90;;;17.10;86.10;;;;;;5088776;28;20050;-72
2023/05/24 06:54:10;;;;;;;1999.90;999.90;;;17.00;87.20;;;;;;5076536;28;20032;-69
2023/05/24 06:56:37;;;;;;;1999.90;999.90;;;16.80;87.70;;;;;;5078321;28;20119;-70
2023/05/24 06:59:05;;;;;;;1999.90;999.90;;;16.60;88.80;;;;;;5068206;28;20402;-69
2023/05/24 07:01:33;;;;;;;1999.90;999.90;;;16.40;89.50;;;;;;5079261;28;20044;-69
2023/05/24 07:04:00;;;;;;;1999.90;999.90;;;16.20;90.00;;;;;;5072067;28;20067;-69
2023/05/24 07:06:27;;;;;;;1999.90;999.90;;;16.00;90.40;;;;;;5086306;28;20059;-69
2023/05/24 07:08:54;;;;;;;1999.90;999.90;;;15.80;90.70;;;;;;5077663;28;20038;-70
2023/05/24 07:11:22;;;;;;;1999.90;999.90;;;15.70;91.10;;;;;;5087515;28;20065;-69
2023/05/24 07:13:50;;;;;;;1999.90;999.90;;;15.50;91.20;;;;;;5080496;28;20028;-71
2023/05/24 07:16:17;;;;;;;1999.90;999.90;;;15.40;91.50;;;;;;5060372;28;20115;-71
2023/05/24 07:18:45;;;;;;;1999.90;999.90;;;15.30;91.70;;;;;;5082299;28;20381;-70
2023/05/24 07:21:13;;;;;;;1999.90;999.90;;;15.30;91.60;;;;;;5083821;28;20324;-69
2023/05/24 07:23:40;;;;;;;1999.90;999.90;;;15.20;91.80;;;;;;5072273;28;20031;-70
2023/05/24 07:26:17;;;;;;;1999.90;999.90;;;15.10;92.00;;;;;;5081116;28;20028;-71
2023/05/24 07:28:44;;;;;;;1999.90;999.90;;;15.00;92.00;;;;;;5078267;28;20085;-70
2023/05/24 07:31:12;;;;;;;1999.90;999.90;;;14.90;92.60;;;;;;5072357;28;20031;-70
2023/05/24 07:33:40;;;;;;;1999.90;999.90;;;14.80;93.10;;;;;;5073184;28;21011;-69
2023/05/24 07:36:07;;;;;;;1999.90;999.90;;;14.60;93.40;;;;;;5081610;28;20028;-70
2023/05/24 07:38:35;;;;;;;1999.90;999.90;;;14.50;93.60;;;;;;5078706;28;20032;-69
2023/05/24 07:41:03;;;;;;;1999.90;999.90;;;14.30;93.50;;;;;;5090923;28;20037;-70
2023/05/24 07:43:32;;;;;;;1999.90;999.90;;;14.20;93.60;;;;;;5094527;28;20034;-69
2023/05/24 07:46:03;;;;;;;1999.90;999.90;;;14.10;93.70;;;;;;5077988;28;20023;-70
2023/05/24 07:48:34;;;;;;;1999.90;999.90;;;14.10;93.70;;;;;;5062375;28;20023;-70
2023/05/24 07:51:02;;;;;;;1999.90;999.90;;;14.10;93.80;;;;;;5085735;28;20031;-70
2023/05/24 07:53:30;;;;;;;1999.90;999.90;;;14.10;94.20;;;;;;5068004;28;20111;-70
2023/05/24 07:55:57;;;;;;;1999.90;999.90;;;14.10;94.70;;;;;;5091678;28;20020;-69
2023/05/24 07:58:25;;;;;;;1999.90;999.90;;;14.00;94.90;;;;;;5088206;28;20382;-69
2023/05/24 08:00:54;;;;;;;1999.90;999.90;;;13.90;95.20;;;;;;5078145;28;20028;-70
2023/05/24 08:03:24;;;;;;;1999.90;999.90;;;13.90;95.50;;;;;;5085800;28;20101;-70
2023/05/24 08:05:52;;;;;;;1999.90;999.90;;;13.70;95.70;;;;;;5083840;28;20028;-69
2023/05/24 08:08:23;;;;;;;1999.90;999.90;;;13.60;95.90;;;;;;5093677;28;20093;-69
2023/05/24 08:10:50;;;;;;;1999.90;999.90;;;13.50;96.10;;;;;;5089599;28;20036;-69
2023/05/24 08:13:17;;;;;;;1999.90;999.90;;;13.30;96.40;;;;;;5079735;28;20051;-69
2023/05/24 08:15:45;;;;;;;1999.90;999.90;;;13.30;96.80;;;;;;5088229;28;20020;-71
2023/05/24 08:18:12;;;;;;;1999.90;999.90;;;13.20;97.20;;;;;;5062515;28;20024;-71
2023/05/24 08:20:40;;;;;;;1999.90;999.90;;;13.10;97.60;;;;;;5087668;28;20023;-70
2023/05/24 08:23:07;;;;;;;1999.90;999.90;;;13.10;97.80;;;;;;5088016;28;20027;-71
2023/05/24 08:25:35;;;;;;;1999.90;999.90;;;13.10;98.20;;;;;;5085113;28;20027;-70
2023/05/24 08:28:02;;;;;;;1999.90;999.90;;;13.00;98.50;;;;;;5090033;28;20024;-69
2023/05/24 08:30:31;;;;;;;1999.90;999.90;;;12.90;98.80;;;;;;5087099;28;20028;-72
2023/05/24 08:32:58;;;;;;;1999.90;999.90;;;12.80;99.00;;;;;;5098289;28;20029;-71
2023/05/24 08:35:25;;;;;;;1999.90;999.90;;;12.70;99.50;;;;;;5086414;28;20062;-71
2023/05/24 08:37:53;;;;;;;1999.90;999.90;;;12.70;99.90;;;;;;5090190;28;20042;-71
2023/05/24 08:40:22;;;;;;;1999.90;999.90;;;12.60;99.90;;;;;;5090387;28;20078;-70
2023/05/24 08:42:51;;;;;;;1999.90;999.90;;;12.50;99.90;;;;;;5081112;28;20016;-70
2023/05/24 08:45:20;;;;;;;1999.90;999.90;;;12.40;99.90;;;;;;5093486;28;20113;-70
2023/05/24 08:47:50;;;;;;;1999.90;999.90;;;12.30;99.90;;;;;;5087619;28;20390;-70
2023/05/24 08:50:18;;;;;;;1999.90;999.90;;;12.20;99.90;;;;;;5082744;28;20060;-70
2023/05/24 08:52:46;;;;;;;1999.90;999.90;;;12.10;99.90;;;;;;5074299;28;20051;-70
2023/05/24 08:55:15;;;;;;;1999.90;999.90;;;12.00;99.90;;;;;;5079412;28;20434;-70
2023/05/24 08:57:43;;;;;;;1999.90;999.90;;;11.90;99.90;;;;;;5087968;28;20085;-70
2023/05/24 09:00:12;;;;;;;1999.90;999.90;;;11.90;99.90;;;;;;5082458;28;20494;-69
2023/05/24 09:02:41;;;;;;;1999.90;999.90;;;11.90;99.90;;;;;;5083415;28;20044;-70
2023/05/24 09:05:11;;;;;;;1999.90;999.90;;;11.80;99.90;;;;;;5072521;28;20036;-70
2023/05/24 09:07:39;;;;;;;1999.90;999.90;;;11.80;99.90;;;;;;5092336;28;20020;-71
2023/05/24 09:10:08;;;;;;;1999.90;999.90;;;11.80;99.90;;;;;;5082462;28;20035;-71
2023/05/24 09:12:38;;;;;;;1999.90;999.90;;;11.90;99.90;;;;;;5085357;28;20102;-70
2023/05/24 09:15:07;;;;;;;1999.90;999.90;;;11.90;99.90;;;;;;5080529;28;20110;-70
2023/05/24 09:17:39;;;;;;;1999.90;999.90;;;11.90;99.90;;;;;;5078527;28;20021;-70
2023/05/24 09:20:09;;;;;;;1999.90;999.90;;;11.80;99.90;;;;;;5081831;28;20040;-69
2023/05/24 09:22:37;;;;;;;1999.90;999.90;;;11.70;99.90;;;;;;5075200;28;20408;-70
2023/05/24 09:25:08;;;;;;;1999.90;999.90;;;11.60;99.90;;;;;;5083521;28;20036;-69
2023/05/24 09:27:37;;;;;;;1999.90;999.90;;;11.60;99.90;;;;;;5091498;28;20064;-69
2023/05/24 09:30:09;;;;;;;1999.90;999.90;;;11.40;99.90;;;;;;5076414;28;20025;-69
2023/05/24 09:32:37;;;;;;;1999.90;999.90;;;11.30;99.90;;;;;;5087064;28;20032;-70
2023/05/24 09:35:11;;;;;;;1999.90;999.90;;;11.20;99.90;;;;;;5083016;28;20513;-70
2023/05/24 09:37:39;;;;;;;1999.90;999.90;;;11.10;99.90;;;;;;5082049;28;20055;-70
2023/05/24 09:40:17;;;;;;;1999.90;999.90;;;11.00;99.90;;;;;;5073418;28;20029;-69
2023/05/24 09:42:45;;;;;;;1999.90;999.90;;;11.00;99.90;;;;;;5090560;28;20078;-70
2023/05/24 09:45:12;;;;;;;1999.90;999.90;;;10.90;99.90;;;;;;5087748;28;20055;-70
2023/05/24 09:47:41;;;;;;;1999.90;999.90;;;10.80;99.90;;;;;;5089923;28;20076;-70
2023/05/24 09:50:19;;;;;;;1999.90;999.90;;;10.80;99.90;;;;;;5089186;28;20047;-70
2023/05/24 09:52:46;;;;;;;1999.90;999.90;;;10.80;99.90;;;;;;5076440;28;20056;-69
2023/05/24 09:55:22;;;;;;;1999.90;999.90;;;10.80;99.90;;;;;;5075359;28;20051;-70
2023/05/24 09:58:11;;;;;;;1999.90;999.90;;;10.70;99.90;;;;;;5089850;28;20024;-71
2023/05/24 10:00:40;;;;;;;1999.90;999.90;;;10.70;99.90;;;;;;5076958;28;20107;-72
2023/05/24 10:03:13;;;;;;;1999.90;999.90;;;10.60;99.90;;;;;;5091057;28;20044;-70
2023/05/24 10:05:47;;;;;;;1999.90;999.90;;;10.60;99.90;;;;;;5081380;28;20039;-72
2023/05/24 10:08:17;;;;;;;1999.90;999.90;;;10.50;99.90;;;;;;5086184;28;20024;-70
2023/05/24 10:10:45;;;;;;;1999.90;999.90;;;10.50;99.90;;;;;;5076734;28;20028;-70
2023/05/24 10:13:14;;;;;;;1999.90;999.90;;;10.40;99.90;;;;;;5069682;28;20035;-70
2023/05/24 10:15:41;;;;;;;1999.90;999.90;;;10.40;99.90;;;;;;5078058;28;20032;-70
2023/05/24 10:18:09;;;;;;;1999.90;999.90;;;10.30;99.90;;;;;;5072514;28;20020;-69
2023/05/24 10:20:37;;;;;;;1999.90;999.90;;;10.20;99.90;;;;;;5080713;28;20032;-69
2023/05/24 10:23:08;;;;;;;1999.90;999.90;;;10.20;99.90;;;;;;5088257;28;20085;-70
2023/05/24 10:25:47;;;;;;;1999.90;999.90;;;10.10;99.90;;;;;;5086944;28;20069;-70
2023/05/24 10:28:16;;;;;;;1999.90;999.90;;;10.00;99.90;;;;;;5091323;28;20016;-70
2023/05/24 10:31:04;;;;;;;1999.90;999.90;;;10.00;99.90;;;;;;5072668;28;20478;-69
2023/05/24 10:33:36;;;;;;;1999.90;999.90;;;9.90;99.90;;;;;;5071119;28;20487;-69
2023/05/24 10:36:05;;;;;;;1999.90;999.90;;;9.80;99.90;;;;;;5074882;28;20513;-69
2023/05/24 10:38:33;;;;;;;1999.90;999.90;;;9.70;99.90;;;;;;5084920;28;20119;-69
2023/05/24 10:41:01;;;;;;;1999.90;999.90;;;9.70;99.90;;;;;;5086911;28;20030;-69
2023/05/24 10:43:29;;;;;;;1999.90;999.90;;;9.60;99.90;;;;;;5081451;28;20028;-69
2023/05/24 10:45:57;;;;;;;1999.90;999.90;;;9.60;99.90;;;;;;5077524;28;20085;-70
2023/05/24 10:48:28;;;;;;;1999.90;999.90;;;9.60;99.90;;;;;;5071400;28;20028;-69
2023/05/24 10:50:56;;;;;;;1999.90;999.90;;;9.50;99.90;;;;;;5088433;28;20048;-70
2023/05/24 10:53:26;;;;;;;1999.90;999.90;;;9.50;99.90;;;;;;5086966;28;20077;-69
2023/05/24 10:56:08;;;;;;;1999.90;999.90;;;9.50;99.90;;;;;;5084606;28;20071;-70
2023/05/24 10:58:57;;;;;;;1999.90;999.90;;;9.50;99.90;;;;;;5079856;28;20077;-69
2023/05/24 11:01:32;;;;;;;1999.90;999.90;;;9.50;99.90;;;;;;5091723;28;20158;-71
2023/05/24 11:04:18;;;;;;;1999.90;999.90;;;9.50;99.90;;;;;;5098333;28;20089;-70
2023/05/24 11:06:48;;;;;;;;;;;9.50;99.90;;;;;;5091553;28;21868;-70
2023/05/24 11:09:21;;;;;;;1999.90;999.90;;;9.50;99.90;;;;;;5095273;28;19908;-70
2023/05/24 11:11:53;;;;;;;1999.90;999.90;;;9.50;99.90;;;;;;5088220;28;20036;-70
2023/05/24 11:14:24;;;;;;;1999.90;999.90;;;9.40;99.90;;;;;;5074558;28;20339;-70
2023/05/24 11:16:51;;;;;;;1999.90;999.90;;;9.40;99.90;;;;;;5097311;28;20068;-70
2023/05/24 11:19:21;;;;;;;1999.90;999.90;;;9.40;99.90;;;;;;5082961;28;20020;-70
2023/05/24 11:21:50;;;;;;;1999.90;999.90;;;9.30;99.90;;;;;;5092751;28;20032;-74
2023/05/24 11:24:19;;;;;;;1999.90;999.90;;;9.30;99.90;;;;;;5082071;28;20104;-71
2023/05/24 11:26:46;;;;;;;1999.90;999.90;;;9.20;99.90;;;;;;5082577;28;20504;-72
2023/05/24 11:29:16;;;;;;;1999.90;999.90;;;9.20;99.90;;;;;;5087187;28;20110;-72
2023/05/24 11:32:17;;;;;;;1999.90;999.90;;;9.10;99.90;;;;;;5081195;28;20028;-73
2023/05/24 11:34:46;;;;;;;1999.90;999.90;;;9.00;99.90;;;;;;5080732;28;20066;-72
2023/05/24 11:37:15;;;;;;;1999.90;999.90;;;9.00;99.90;;;;;;5087954;28;20035;-72
2023/05/24 11:39:42;;;;;;;1999.90;999.90;;;8.90;99.90;;;;;;5070427;28;20530;-71
2023/05/24 11:42:10;;;;;;;1999.90;999.90;;;8.80;99.90;;;;;;5082105;28;20024;-72
2023/05/24 11:44:37;;;;;;;1999.90;999.90;;;8.80;99.90;;;;;;5079195;28;20029;-72
2023/05/24 11:47:07;;;;;;;1999.90;999.90;;;8.70;99.90;;;;;;5085459;28;20032;-72
2023/05/24 11:49:34;;;;;;;1999.90;999.90;;;8.70;99.90;;;;;;5080748;28;20024;-72
2023/05/24 11:52:06;;;;;;;1999.90;999.90;;;8.60;99.90;;;;;;5078087;28;20513;-69
2023/05/24 11:54:34;;;;;;;1999.90;999.90;;;8.60;99.90;;;;;;5066756;28;20557;-69
2023/05/24 11:57:02;;;;;;;1999.90;999.90;;;8.60;99.90;;;;;;5099023;28;20032;-70
2023/05/24 11:59:30;;;;;;;1999.90;999.90;;;8.60;99.90;;;;;;5082449;28;20069;-70
2023/05/24 12:02:05;;;;;;;1999.90;999.90;;;8.50;99.90;;;;;;5087067;28;20048;-70
2023/05/24 12:04:33;;;;;;;1999.90;999.90;;;8.50;99.90;;;;;;5082987;28;20070;-72
2023/05/24 12:07:02;;;;;;;1999.90;999.90;;;8.50;99.90;;;;;;5082449;28;20031;-70
2023/05/24 12:09:29;;;;;;;1999.90;999.90;;;8.40;99.90;;;;;;5086853;28;20035;-71
2023/05/24 12:11:57;;;;;;;1999.90;999.90;;;8.30;99.90;;;;;;5103935;28;20118;-70